KSJN/SJN METAR and TAF weather

Enter ICAO airport designator
Station Type Date Time Source
KSJN METAR 2021/09/24 02:54 UTC NOAA

KSJN 240254Z AUTO 16005KT 10SM BKN100 18/05 A3018 RMK AO2 SLP147 T01830050 53014


Station Type Date Time Source
KSJN Decoded METAR 2021/09/24 02:54 UTC NOAA

ST JOHNS INDUSTRIAL AIRPRK, AZ, United States (KSJN) 34-31N 109-23W 1745M
Sep 23, 2021 - 10:54 PM EDT / 2021.09.24 0254 UTC
Wind: from the SSE (160 degrees) at 6 MPH (5 KT):0
Visibility: 10 mile(s):0
Sky conditions: mostly cloudy
Temperature: 64.9 F (18.3 C)
Dew Point: 41.0 F (5.0 C)
Relative Humidity: 41%
Pressure (altimeter): 30.18 in. Hg (1022 hPa)
Pressure tendency: 0.04 inches (1.4 hPa) higher than three hours ago
ob: KSJN 240254Z AUTO 16005KT 10SM BKN100 18/05 A3018 RMK AO2 SLP147 T01830050 53014
cycle: 3

Station Type Date Time Source
KSJN TAF UTC NOAA

Error!

Example: see airport list